sensor_id;sensor_type;location;lat;lon;timestamp;temperature;humidity
7046;DHT22;3564;53.326;10.356;2023-02-13T00:00:32;11.60;99.90
7046;DHT22;3564;53.326;10.356;2023-02-13T00:02:59;11.60;99.90
7046;DHT22;3564;53.326;10.356;2023-02-13T00:05:25;11.60;99.90
7046;DHT22;3564;53.326;10.356;2023-02-13T00:07:52;11.60;99.90
7046;DHT22;3564;53.326;10.356;2023-02-13T00:10:17;11.60;99.90
7046;DHT22;3564;53.326;10.356;2023-02-13T00:12:43;11.60;99.90
7046;DHT22;3564;53.326;10.356;2023-02-13T00:15:09;11.60;99.90
7046;DHT22;3564;53.326;10.356;2023-02-13T00:17:35;11.60;99.90
7046;DHT22;3564;53.326;10.356;2023-02-13T00:20:00;11.60;99.90
7046;DHT22;3564;53.326;10.356;2023-02-13T00:22:26;11.60;99.90
7046;DHT22;3564;53.326;10.356;2023-02-13T00:24:51;11.60;99.90
7046;DHT22;3564;53.326;10.356;2023-02-13T00:27:17;11.60;99.90
7046;DHT22;3564;53.326;10.356;2023-02-13T00:29:43;11.60;99.90
7046;DHT22;3564;53.326;10.356;2023-02-13T00:32:09;11.60;99.90
7046;DHT22;3564;53.326;10.356;2023-02-13T00:34:35;11.60;99.90
7046;DHT22;3564;53.326;10.356;2023-02-13T00:37:01;11.60;99.90
7046;DHT22;3564;53.326;10.356;2023-02-13T00:39:26;11.60;99.90
7046;DHT22;3564;53.326;10.356;2023-02-13T00:41:52;11.60;99.90
7046;DHT22;3564;53.326;10.356;2023-02-13T00:44:17;11.60;99.90
7046;DHT22;3564;53.326;10.356;2023-02-13T00:46:43;11.60;99.90
7046;DHT22;3564;53.326;10.356;2023-02-13T00:49:09;11.60;99.90
7046;DHT22;3564;53.326;10.356;2023-02-13T00:51:36;11.60;99.90
7046;DHT22;3564;53.326;10.356;2023-02-13T00:54:02;11.60;99.90
7046;DHT22;3564;53.326;10.356;2023-02-13T00:56:27;11.60;99.90
7046;DHT22;3564;53.326;10.356;2023-02-13T00:58:53;11.60;99.90
7046;DHT22;3564;53.326;10.356;2023-02-13T01:01:18;11.60;99.90
7046;DHT22;3564;53.326;10.356;2023-02-13T01:03:44;11.60;99.90
7046;DHT22;3564;53.326;10.356;2023-02-13T01:06:10;11.60;99.90
7046;DHT22;3564;53.326;10.356;2023-02-13T01:08:38;11.60;99.90
7046;DHT22;3564;53.326;10.356;2023-02-13T01:11:04;11.60;99.90
7046;DHT22;3564;53.326;10.356;2023-02-13T01:13:30;11.60;99.90
7046;DHT22;3564;53.326;10.356;2023-02-13T01:15:55;11.60;99.90
7046;DHT22;3564;53.326;10.356;2023-02-13T01:18:21;11.60;99.90
7046;DHT22;3564;53.326;10.356;2023-02-13T01:21:05;11.60;99.90
7046;DHT22;3564;53.326;10.356;2023-02-13T01:23:32;11.60;99.90
7046;DHT22;3564;53.326;10.356;2023-02-13T01:25:58;11.60;99.90
7046;DHT22;3564;53.326;10.356;2023-02-13T01:28:24;11.50;99.90
7046;DHT22;3564;53.326;10.356;2023-02-13T01:30:54;11.50;99.90
7046;DHT22;3564;53.326;10.356;2023-02-13T01:33:24;11.50;99.90
7046;DHT22;3564;53.326;10.356;2023-02-13T01:35:49;11.50;99.90
7046;DHT22;3564;53.326;10.356;2023-02-13T01:38:15;11.50;99.90
7046;DHT22;3564;53.326;10.356;2023-02-13T01:40:52;11.50;99.90
7046;DHT22;3564;53.326;10.356;2023-02-13T01:43:20;11.60;99.90
7046;DHT22;3564;53.326;10.356;2023-02-13T01:45:51;11.50;99.90
7046;DHT22;3564;53.326;10.356;2023-02-13T01:48:20;11.50;99.90
7046;DHT22;3564;53.326;10.356;2023-02-13T01:53:28;11.50;99.90
7046;DHT22;3564;53.326;10.356;2023-02-13T01:56:02;11.50;99.90
7046;DHT22;3564;53.326;10.356;2023-02-13T01:58:32;11.50;99.90
7046;DHT22;3564;53.326;10.356;2023-02-13T02:01:00;11.50;99.90
7046;DHT22;3564;53.326;10.356;2023-02-13T02:03:40;11.50;99.90
7046;DHT22;3564;53.326;10.356;2023-02-13T02:06:19;11.50;99.90
7046;DHT22;3564;53.326;10.356;2023-02-13T02:08:46;11.50;99.90
7046;DHT22;3564;53.326;10.356;2023-02-13T02:11:32;11.50;99.90
7046;DHT22;3564;53.326;10.356;2023-02-13T02:14:00;11.50;99.90
7046;DHT22;3564;53.326;10.356;2023-02-13T02:16:28;11.50;99.90
7046;DHT22;3564;53.326;10.356;2023-02-13T02:18:54;11.50;99.90
7046;DHT22;3564;53.326;10.356;2023-02-13T02:40:32;11.40;99.90
7046;DHT22;3564;53.326;10.356;2023-02-13T02:43:24;11.40;99.90
7046;DHT22;3564;53.326;10.356;2023-02-13T02:46:43;11.40;99.90
7046;DHT22;3564;53.326;10.356;2023-02-13T02:49:14;11.40;99.90
7046;DHT22;3564;53.326;10.356;2023-02-13T02:52:14;11.40;99.90
7046;DHT22;3564;53.326;10.356;2023-02-13T02:54:48;11.40;99.90
7046;DHT22;3564;53.326;10.356;2023-02-13T02:57:35;11.40;99.90
7046;DHT22;3564;53.326;10.356;2023-02-13T03:00:23;11.40;99.90
7046;DHT22;3564;53.326;10.356;2023-02-13T03:03:20;11.40;99.90
7046;DHT22;3564;53.326;10.356;2023-02-13T03:09:00;11.30;99.90
7046;DHT22;3564;53.326;10.356;2023-02-13T03:11:49;11.30;99.90
7046;DHT22;3564;53.326;10.356;2023-02-13T03:14:55;11.30;99.90
7046;DHT22;3564;53.326;10.356;2023-02-13T03:17:21;11.30;99.90
7046;DHT22;3564;53.326;10.356;2023-02-13T03:23:22;11.30;99.90
7046;DHT22;3564;53.326;10.356;2023-02-13T03:28:39;11.30;99.90
7046;DHT22;3564;53.326;10.356;2023-02-13T03:31:30;11.30;99.90
7046;DHT22;3564;53.326;10.356;2023-02-13T03:34:08;11.30;99.90
7046;DHT22;3564;53.326;10.356;2023-02-13T03:36:48;11.30;99.90
7046;DHT22;3564;53.326;10.356;2023-02-13T03:40:11;11.30;99.90
7046;DHT22;3564;53.326;10.356;2023-02-13T03:43:07;11.30;99.90
7046;DHT22;3564;53.326;10.356;2023-02-13T03:45:41;11.30;99.90
7046;DHT22;3564;53.326;10.356;2023-02-13T03:48:28;11.30;99.90
7046;DHT22;3564;53.326;10.356;2023-02-13T03:51:21;11.30;99.90
7046;DHT22;3564;53.326;10.356;2023-02-13T03:53:52;11.30;99.90
7046;DHT22;3564;53.326;10.356;2023-02-13T03:56:21;11.30;99.90
7046;DHT22;3564;53.326;10.356;2023-02-13T03:59:08;11.30;99.90
7046;DHT22;3564;53.326;10.356;2023-02-13T04:02:15;11.30;99.90
7046;DHT22;3564;53.326;10.356;2023-02-13T04:04:49;11.20;99.90
7046;DHT22;3564;53.326;10.356;2023-02-13T04:07:17;11.20;99.90
7046;DHT22;3564;53.326;10.356;2023-02-13T04:10:02;11.20;99.90
7046;DHT22;3564;53.326;10.356;2023-02-13T04:13:02;11.20;99.90
7046;DHT22;3564;53.326;10.356;2023-02-13T04:15:38;11.20;99.90
7046;DHT22;3564;53.326;10.356;2023-02-13T04:18:22;11.20;99.90
7046;DHT22;3564;53.326;10.356;2023-02-13T04:20:49;11.20;99.90
7046;DHT22;3564;53.326;10.356;2023-02-13T04:23:15;11.20;99.90
7046;DHT22;3564;53.326;10.356;2023-02-13T04:25:43;11.20;99.90
7046;DHT22;3564;53.326;10.356;2023-02-13T04:28:10;11.20;99.90
7046;DHT22;3564;53.326;10.356;2023-02-13T04:30:35;11.20;99.90
7046;DHT22;3564;53.326;10.356;2023-02-13T04:33:01;11.20;99.90
7046;DHT22;3564;53.326;10.356;2023-02-13T04:35:27;11.20;99.90
7046;DHT22;3564;53.326;10.356;2023-02-13T04:37:52;11.20;99.90
7046;DHT22;3564;53.326;10.356;2023-02-13T04:40:18;11.20;99.90
7046;DHT22;3564;53.326;10.356;2023-02-13T04:42:47;11.20;99.90
7046;DHT22;3564;53.326;10.356;2023-02-13T04:45:14;11.20;99.90
7046;DHT22;3564;53.326;10.356;2023-02-13T04:47:39;11.20;99.90
7046;DHT22;3564;53.326;10.356;2023-02-13T04:50:05;11.20;99.90
7046;DHT22;3564;53.326;10.356;2023-02-13T04:52:34;11.20;99.90
7046;DHT22;3564;53.326;10.356;2023-02-13T04:55:00;11.20;99.90
7046;DHT22;3564;53.326;10.356;2023-02-13T04:57:25;11.20;99.90
7046;DHT22;3564;53.326;10.356;2023-02-13T04:59:51;11.20;99.90
7046;DHT22;3564;53.326;10.356;2023-02-13T05:02:16;11.20;99.90
7046;DHT22;3564;53.326;10.356;2023-02-13T05:04:42;11.20;99.90
7046;DHT22;3564;53.326;10.356;2023-02-13T05:07:07;11.20;99.90
7046;DHT22;3564;53.326;10.356;2023-02-13T05:09:33;11.20;99.90
7046;DHT22;3564;53.326;10.356;2023-02-13T05:12:05;11.20;99.90
7046;DHT22;3564;53.326;10.356;2023-02-13T05:14:30;11.20;99.90
7046;DHT22;3564;53.326;10.356;2023-02-13T05:16:56;11.20;99.90
7046;DHT22;3564;53.326;10.356;2023-02-13T05:19:21;11.20;99.90
7046;DHT22;3564;53.326;10.356;2023-02-13T05:21:47;11.20;99.90
7046;DHT22;3564;53.326;10.356;2023-02-13T05:24:31;11.20;99.90
7046;DHT22;3564;53.326;10.356;2023-02-13T05:26:56;11.20;99.90
7046;DHT22;3564;53.326;10.356;2023-02-13T05:29:22;11.10;99.90
7046;DHT22;3564;53.326;10.356;2023-02-13T05:31:53;11.10;99.90
7046;DHT22;3564;53.326;10.356;2023-02-13T05:34:20;11.10;99.90
7046;DHT22;3564;53.326;10.356;2023-02-13T05:36:47;11.10;99.90
7046;DHT22;3564;53.326;10.356;2023-02-13T05:39:12;11.10;99.90
7046;DHT22;3564;53.326;10.356;2023-02-13T05:41:39;11.10;99.90
7046;DHT22;3564;53.326;10.356;2023-02-13T05:44:05;11.10;99.90
7046;DHT22;3564;53.326;10.356;2023-02-13T05:46:31;11.10;99.90
7046;DHT22;3564;53.326;10.356;2023-02-13T05:48:56;11.10;99.90
7046;DHT22;3564;53.326;10.356;2023-02-13T05:51:22;11.10;99.90
7046;DHT22;3564;53.326;10.356;2023-02-13T05:53:47;11.10;99.90
7046;DHT22;3564;53.326;10.356;2023-02-13T05:56:13;11.10;99.90
7046;DHT22;3564;53.326;10.356;2023-02-13T05:58:39;11.10;99.90
7046;DHT22;3564;53.326;10.356;2023-02-13T06:01:04;11.10;99.90
7046;DHT22;3564;53.326;10.356;2023-02-13T06:03:31;11.10;99.90
7046;DHT22;3564;53.326;10.356;2023-02-13T06:05:57;11.10;99.90
7046;DHT22;3564;53.326;10.356;2023-02-13T06:08:24;11.10;99.90
7046;DHT22;3564;53.326;10.356;2023-02-13T06:10:49;11.10;99.90
7046;DHT22;3564;53.326;10.356;2023-02-13T06:13:15;11.10;99.90
7046;DHT22;3564;53.326;10.356;2023-02-13T06:15:42;11.10;99.90
7046;DHT22;3564;53.326;10.356;2023-02-13T06:18:08;11.10;99.90
7046;DHT22;3564;53.326;10.356;2023-02-13T06:20:35;11.10;99.90
7046;DHT22;3564;53.326;10.356;2023-02-13T06:23:01;11.00;99.90
7046;DHT22;3564;53.326;10.356;2023-02-13T06:25:27;11.10;99.90
7046;DHT22;3564;53.326;10.356;2023-02-13T06:27:52;11.00;99.90
7046;DHT22;3564;53.326;10.356;2023-02-13T06:30:18;11.00;99.90
7046;DHT22;3564;53.326;10.356;2023-02-13T06:32:49;11.00;99.90
7046;DHT22;3564;53.326;10.356;2023-02-13T06:35:15;11.00;99.90
7046;DHT22;3564;53.326;10.356;2023-02-13T06:37:41;11.00;99.90
7046;DHT22;3564;53.326;10.356;2023-02-13T06:40:11;11.00;99.90
7046;DHT22;3564;53.326;10.356;2023-02-13T06:42:37;11.00;99.90
7046;DHT22;3564;53.326;10.356;2023-02-13T06:45:04;11.00;99.90
7046;DHT22;3564;53.326;10.356;2023-02-13T06:47:30;11.00;99.90
7046;DHT22;3564;53.326;10.356;2023-02-13T06:49:56;11.00;99.90
7046;DHT22;3564;53.326;10.356;2023-02-13T06:52:22;11.00;99.90
7046;DHT22;3564;53.326;10.356;2023-02-13T06:54:48;11.00;99.90
7046;DHT22;3564;53.326;10.356;2023-02-13T06:57:14;11.00;99.90
7046;DHT22;3564;53.326;10.356;2023-02-13T06:59:40;11.00;99.90
7046;DHT22;3564;53.326;10.356;2023-02-13T07:02:11;11.00;99.90
7046;DHT22;3564;53.326;10.356;2023-02-13T07:04:38;11.00;99.90
7046;DHT22;3564;53.326;10.356;2023-02-13T07:07:03;11.00;99.90
7046;DHT22;3564;53.326;10.356;2023-02-13T07:09:32;11.00;99.90
7046;DHT22;3564;53.326;10.356;2023-02-13T07:12:02;11.00;99.90
7046;DHT22;3564;53.326;10.356;2023-02-13T07:14:27;11.00;99.90
7046;DHT22;3564;53.326;10.356;2023-02-13T07:16:53;11.00;99.90
7046;DHT22;3564;53.326;10.356;2023-02-13T07:19:18;11.00;99.90
7046;DHT22;3564;53.326;10.356;2023-02-13T07:21:44;11.00;99.90
7046;DHT22;3564;53.326;10.356;2023-02-13T07:24:09;11.00;99.90
7046;DHT22;3564;53.326;10.356;2023-02-13T07:26:35;11.00;99.90
7046;DHT22;3564;53.326;10.356;2023-02-13T07:29:01;11.00;99.90
7046;DHT22;3564;53.326;10.356;2023-02-13T07:31:32;11.00;99.90
7046;DHT22;3564;53.326;10.356;2023-02-13T07:33:58;11.00;99.90
7046;DHT22;3564;53.326;10.356;2023-02-13T07:36:25;11.00;99.90
7046;DHT22;3564;53.326;10.356;2023-02-13T07:38:51;11.00;99.90
7046;DHT22;3564;53.326;10.356;2023-02-13T07:41:16;11.00;99.90
7046;DHT22;3564;53.326;10.356;2023-02-13T07:43:42;11.00;99.90
7046;DHT22;3564;53.326;10.356;2023-02-13T07:46:08;11.00;99.90
7046;DHT22;3564;53.326;10.356;2023-02-13T07:48:34;11.00;99.90
7046;DHT22;3564;53.326;10.356;2023-02-13T07:51:03;11.00;99.90
7046;DHT22;3564;53.326;10.356;2023-02-13T07:53:30;11.00;99.90
7046;DHT22;3564;53.326;10.356;2023-02-13T07:55:56;11.00;99.90
7046;DHT22;3564;53.326;10.356;2023-02-13T07:58:21;11.00;99.90
7046;DHT22;3564;53.326;10.356;2023-02-13T08:00:47;11.00;99.90
7046;DHT22;3564;53.326;10.356;2023-02-13T08:03:13;11.00;99.90
7046;DHT22;3564;53.326;10.356;2023-02-13T08:05:38;11.10;99.90
7046;DHT22;3564;53.326;10.356;2023-02-13T08:08:05;11.10;99.90
7046;DHT22;3564;53.326;10.356;2023-02-13T08:10:30;11.10;99.90
7046;DHT22;3564;53.326;10.356;2023-02-13T08:13:15;11.10;99.90
7046;DHT22;3564;53.326;10.356;2023-02-13T08:15:41;11.10;99.90
7046;DHT22;3564;53.326;10.356;2023-02-13T08:18:09;11.10;99.90
7046;DHT22;3564;53.326;10.356;2023-02-13T08:20:35;11.10;99.90
7046;DHT22;3564;53.326;10.356;2023-02-13T08:23:04;11.10;99.90
7046;DHT22;3564;53.326;10.356;2023-02-13T08:25:31;11.10;99.90
7046;DHT22;3564;53.326;10.356;2023-02-13T08:27:57;11.10;99.90
7046;DHT22;3564;53.326;10.356;2023-02-13T08:30:23;11.10;99.90
7046;DHT22;3564;53.326;10.356;2023-02-13T08:32:48;11.10;99.90
7046;DHT22;3564;53.326;10.356;2023-02-13T08:35:14;11.20;99.90
7046;DHT22;3564;53.326;10.356;2023-02-13T08:37:40;11.20;99.90
7046;DHT22;3564;53.326;10.356;2023-02-13T08:40:06;11.20;99.90
7046;DHT22;3564;53.326;10.356;2023-02-13T08:42:35;11.20;99.90
7046;DHT22;3564;53.326;10.356;2023-02-13T08:45:01;11.20;99.90
7046;DHT22;3564;53.326;10.356;2023-02-13T08:47:27;11.20;99.90
7046;DHT22;3564;53.326;10.356;2023-02-13T08:49:52;11.20;99.90
7046;DHT22;3564;53.326;10.356;2023-02-13T08:52:18;11.20;99.90
7046;DHT22;3564;53.326;10.356;2023-02-13T08:54:43;11.20;99.90
7046;DHT22;3564;53.326;10.356;2023-02-13T08:57:09;11.20;99.90
7046;DHT22;3564;53.326;10.356;2023-02-13T08:59:35;11.30;99.90
7046;DHT22;3564;53.326;10.356;2023-02-13T09:02:00;11.30;99.90
7046;DHT22;3564;53.326;10.356;2023-02-13T09:04:26;11.30;99.90
7046;DHT22;3564;53.326;10.356;2023-02-13T09:06:52;11.30;99.90
7046;DHT22;3564;53.326;10.356;2023-02-13T09:09:18;11.30;99.90
7046;DHT22;3564;53.326;10.356;2023-02-13T09:11:44;11.30;99.90
7046;DHT22;3564;53.326;10.356;2023-02-13T09:14:09;11.30;99.90
7046;DHT22;3564;53.326;10.356;2023-02-13T09:16:35;11.30;99.90
7046;DHT22;3564;53.326;10.356;2023-02-13T09:19:00;11.30;99.90
7046;DHT22;3564;53.326;10.356;2023-02-13T09:21:26;11.30;99.90
7046;DHT22;3564;53.326;10.356;2023-02-13T09:23:52;11.30;99.90
7046;DHT22;3564;53.326;10.356;2023-02-13T09:26:19;11.30;99.90
7046;DHT22;3564;53.326;10.356;2023-02-13T09:28:45;11.40;99.90
7046;DHT22;3564;53.326;10.356;2023-02-13T09:31:15;11.40;99.90
7046;DHT22;3564;53.326;10.356;2023-02-13T09:33:42;11.40;99.90
7046;DHT22;3564;53.326;10.356;2023-02-13T09:36:11;11.40;99.90
7046;DHT22;3564;53.326;10.356;2023-02-13T09:38:41;11.40;99.90
7046;DHT22;3564;53.326;10.356;2023-02-13T09:41:20;11.40;99.90
7046;DHT22;3564;53.326;10.356;2023-02-13T09:46:30;11.40;99.90
7046;DHT22;3564;53.326;10.356;2023-02-13T09:49:00;11.40;99.90
7046;DHT22;3564;53.326;10.356;2023-02-13T09:51:29;11.40;99.90
7046;DHT22;3564;53.326;10.356;2023-02-13T09:54:06;11.40;99.90
7046;DHT22;3564;53.326;10.356;2023-02-13T10:02:51;11.50;99.90
7046;DHT22;3564;53.326;10.356;2023-02-13T10:14:00;11.50;99.90
7046;DHT22;3564;53.326;10.356;2023-02-13T10:19:36;11.50;99.90
7046;DHT22;3564;53.326;10.356;2023-02-13T10:22:15;11.50;99.90
7046;DHT22;3564;53.326;10.356;2023-02-13T10:25:02;11.60;99.90
7046;DHT22;3564;53.326;10.356;2023-02-13T10:27:34;11.60;99.90
7046;DHT22;3564;53.326;10.356;2023-02-13T10:30:07;11.60;99.90
7046;DHT22;3564;53.326;10.356;2023-02-13T10:38:22;11.60;99.90
7046;DHT22;3564;53.326;10.356;2023-02-13T10:41:30;11.60;99.90
7046;DHT22;3564;53.326;10.356;2023-02-13T10:44:28;11.60;99.90
7046;DHT22;3564;53.326;10.356;2023-02-13T10:47:04;11.70;99.90
7046;DHT22;3564;53.326;10.356;2023-02-13T11:02:43;11.70;99.90
7046;DHT22;3564;53.326;10.356;2023-02-13T11:07:40;11.80;99.90
7046;DHT22;3564;53.326;10.356;2023-02-13T11:10:15;11.80;99.90
7046;DHT22;3564;53.326;10.356;2023-02-13T11:12:40;11.80;99.90
7046;DHT22;3564;53.326;10.356;2023-02-13T11:15:27;11.80;99.90
7046;DHT22;3564;53.326;10.356;2023-02-13T11:17:56;11.80;99.90
7046;DHT22;3564;53.326;10.356;2023-02-13T11:20:39;11.90;99.90
7046;DHT22;3564;53.326;10.356;2023-02-13T11:26:02;11.90;99.90
7046;DHT22;3564;53.326;10.356;2023-02-13T11:28:30;11.90;99.90
7046;DHT22;3564;53.326;10.356;2023-02-13T11:31:26;11.90;99.90
7046;DHT22;3564;53.326;10.356;2023-02-13T11:33:52;11.90;99.90
7046;DHT22;3564;53.326;10.356;2023-02-13T11:36:36;12.00;99.90
7046;DHT22;3564;53.326;10.356;2023-02-13T11:39:16;12.00;99.90
7046;DHT22;3564;53.326;10.356;2023-02-13T11:41:44;12.00;99.90
7046;DHT22;3564;53.326;10.356;2023-02-13T11:44:25;12.00;99.90
7046;DHT22;3564;53.326;10.356;2023-02-13T11:46:54;12.10;99.90
7046;DHT22;3564;53.326;10.356;2023-02-13T11:51:52;12.10;99.90
7046;DHT22;3564;53.326;10.356;2023-02-13T11:59:32;12.10;99.90
7046;DHT22;3564;53.326;10.356;2023-02-13T12:02:13;12.10;99.90
7046;DHT22;3564;53.326;10.356;2023-02-13T12:04:39;12.10;99.90
7046;DHT22;3564;53.326;10.356;2023-02-13T12:07:16;12.10;99.90
7046;DHT22;3564;53.326;10.356;2023-02-13T12:09:43;12.10;99.90
7046;DHT22;3564;53.326;10.356;2023-02-13T12:12:21;12.10;99.90
7046;DHT22;3564;53.326;10.356;2023-02-13T12:14:49;12.10;99.90
7046;DHT22;3564;53.326;10.356;2023-02-13T12:17:28;12.10;99.90
7046;DHT22;3564;53.326;10.356;2023-02-13T12:19:55;12.10;99.90
7046;DHT22;3564;53.326;10.356;2023-02-13T12:22:40;12.10;99.90
7046;DHT22;3564;53.326;10.356;2023-02-13T12:28:27;12.20;99.90
7046;DHT22;3564;53.326;10.356;2023-02-13T12:31:56;12.20;99.90
7046;DHT22;3564;53.326;10.356;2023-02-13T12:39:37;12.20;99.90
7046;DHT22;3564;53.326;10.356;2023-02-13T12:45:09;12.30;99.90
7046;DHT22;3564;53.326;10.356;2023-02-13T12:50:56;12.30;99.80
7046;DHT22;3564;53.326;10.356;2023-02-13T13:02:15;12.30;99.70
7046;DHT22;3564;53.326;10.356;2023-02-13T13:08:11;12.30;99.50
7046;DHT22;3564;53.326;10.356;2023-02-13T13:14:07;12.40;99.40
7046;DHT22;3564;53.326;10.356;2023-02-13T13:17:27;12.40;99.30
7046;DHT22;3564;53.326;10.356;2023-02-13T13:22:45;12.40;99.50
7046;DHT22;3564;53.326;10.356;2023-02-13T13:25:26;12.40;99.40
7046;DHT22;3564;53.326;10.356;2023-02-13T13:28:01;12.40;99.30
7046;DHT22;3564;53.326;10.356;2023-02-13T13:30:33;12.40;99.40
7046;DHT22;3564;53.326;10.356;2023-02-13T13:33:18;12.40;99.30
7046;DHT22;3564;53.326;10.356;2023-02-13T13:36:04;12.40;99.30
7046;DHT22;3564;53.326;10.356;2023-02-13T13:38:37;12.40;99.40
7046;DHT22;3564;53.326;10.356;2023-02-13T13:44:11;12.40;99.60
7046;DHT22;3564;53.326;10.356;2023-02-13T13:49:53;12.40;99.60
7046;DHT22;3564;53.326;10.356;2023-02-13T13:52:36;12.40;99.60
7046;DHT22;3564;53.326;10.356;2023-02-13T13:55:05;12.40;99.60
7046;DHT22;3564;53.326;10.356;2023-02-13T13:57:59;12.40;99.80
7046;DHT22;3564;53.326;10.356;2023-02-13T14:00:29;12.40;99.90
7046;DHT22;3564;53.326;10.356;2023-02-13T14:05:29;12.50;99.90
7046;DHT22;3564;53.326;10.356;2023-02-13T14:07:59;12.40;99.90
7046;DHT22;3564;53.326;10.356;2023-02-13T14:23:46;12.40;99.90
7046;DHT22;3564;53.326;10.356;2023-02-13T14:36:40;12.40;99.80
7046;DHT22;3564;53.326;10.356;2023-02-13T14:39:29;12.40;99.70
7046;DHT22;3564;53.326;10.356;2023-02-13T14:42:00;12.40;99.70
7046;DHT22;3564;53.326;10.356;2023-02-13T14:44:35;12.40;99.80
7046;DHT22;3564;53.326;10.356;2023-02-13T14:47:10;12.40;99.90
7046;DHT22;3564;53.326;10.356;2023-02-13T14:49:39;12.40;99.90
7046;DHT22;3564;53.326;10.356;2023-02-13T14:52:15;12.40;99.90
7046;DHT22;3564;53.326;10.356;2023-02-13T14:54:48;12.40;99.90
7046;DHT22;3564;53.326;10.356;2023-02-13T14:57:31;12.40;99.90
7046;DHT22;3564;53.326;10.356;2023-02-13T15:02:53;12.30;99.90
7046;DHT22;3564;53.326;10.356;2023-02-13T15:05:20;12.30;99.90
7046;DHT22;3564;53.326;10.356;2023-02-13T15:08:19;12.30;99.80
7046;DHT22;3564;53.326;10.356;2023-02-13T15:10:53;12.30;99.80
7046;DHT22;3564;53.326;10.356;2023-02-13T15:13:24;12.30;99.80
7046;DHT22;3564;53.326;10.356;2023-02-13T15:15:53;12.30;99.90
7046;DHT22;3564;53.326;10.356;2023-02-13T15:18:26;12.30;99.90
7046;DHT22;3564;53.326;10.356;2023-02-13T15:20:55;12.20;99.90
7046;DHT22;3564;53.326;10.356;2023-02-13T15:23:29;12.20;99.90
7046;DHT22;3564;53.326;10.356;2023-02-13T15:25:57;12.20;99.90
7046;DHT22;3564;53.326;10.356;2023-02-13T15:28:24;12.20;99.90
7046;DHT22;3564;53.326;10.356;2023-02-13T15:31:01;12.20;99.90
7046;DHT22;3564;53.326;10.356;2023-02-13T15:33:31;12.20;99.90
7046;DHT22;3564;53.326;10.356;2023-02-13T15:35:59;12.20;99.90
7046;DHT22;3564;53.326;10.356;2023-02-13T15:41:47;12.20;99.90
7046;DHT22;3564;53.326;10.356;2023-02-13T15:44:23;12.10;99.90
7046;DHT22;3564;53.326;10.356;2023-02-13T15:46:51;12.20;99.90
7046;DHT22;3564;53.326;10.356;2023-02-13T15:49:20;12.10;99.90
7046;DHT22;3564;53.326;10.356;2023-02-13T15:51:47;12.10;99.90
7046;DHT22;3564;53.326;10.356;2023-02-13T15:54:24;12.10;99.90
7046;DHT22;3564;53.326;10.356;2023-02-13T15:57:04;12.10;99.90
7046;DHT22;3564;53.326;10.356;2023-02-13T15:59:34;12.10;99.90
7046;DHT22;3564;53.326;10.356;2023-02-13T16:02:01;12.10;99.90
7046;DHT22;3564;53.326;10.356;2023-02-13T16:04:30;12.10;99.90
7046;DHT22;3564;53.326;10.356;2023-02-13T16:06:56;12.10;99.90
7046;DHT22;3564;53.326;10.356;2023-02-13T16:09:29;12.00;99.90
7046;DHT22;3564;53.326;10.356;2023-02-13T16:12:00;12.00;99.90
7046;DHT22;3564;53.326;10.356;2023-02-13T16:14:28;12.00;99.90
7046;DHT22;3564;53.326;10.356;2023-02-13T16:17:03;12.00;99.90
7046;DHT22;3564;53.326;10.356;2023-02-13T16:22:36;12.00;99.90
7046;DHT22;3564;53.326;10.356;2023-02-13T16:27:41;12.00;99.90
7046;DHT22;3564;53.326;10.356;2023-02-13T16:30:30;12.00;99.90
7046;DHT22;3564;53.326;10.356;2023-02-13T16:38:35;11.90;99.90
7046;DHT22;3564;53.326;10.356;2023-02-13T16:43:54;11.90;99.90
7046;DHT22;3564;53.326;10.356;2023-02-13T16:47:11;11.90;99.90
7046;DHT22;3564;53.326;10.356;2023-02-13T16:49:35;11.90;99.90
7046;DHT22;3564;53.326;10.356;2023-02-13T16:52:16;11.90;99.90
7046;DHT22;3564;53.326;10.356;2023-02-13T16:59:51;11.80;99.90
7046;DHT22;3564;53.326;10.356;2023-02-13T17:07:39;11.80;99.90
7046;DHT22;3564;53.326;10.356;2023-02-13T17:10:30;11.80;99.90
7046;DHT22;3564;53.326;10.356;2023-02-13T17:12:59;11.80;99.90
7046;DHT22;3564;53.326;10.356;2023-02-13T17:15:29;11.80;99.90
7046;DHT22;3564;53.326;10.356;2023-02-13T17:17:55;11.80;99.90
7046;DHT22;3564;53.326;10.356;2023-02-13T17:20:23;11.80;99.90
7046;DHT22;3564;53.326;10.356;2023-02-13T17:22:54;11.80;99.90
7046;DHT22;3564;53.326;10.356;2023-02-13T17:25:22;11.80;99.90
7046;DHT22;3564;53.326;10.356;2023-02-13T17:27:52;11.80;99.90
7046;DHT22;3564;53.326;10.356;2023-02-13T17:30:21;11.80;99.90
7046;DHT22;3564;53.326;10.356;2023-02-13T17:32:48;11.80;99.90
7046;DHT22;3564;53.326;10.356;2023-02-13T17:35:15;11.80;99.90
7046;DHT22;3564;53.326;10.356;2023-02-13T17:37:41;11.70;99.90
7046;DHT22;3564;53.326;10.356;2023-02-13T17:40:08;11.70;99.90
7046;DHT22;3564;53.326;10.356;2023-02-13T17:42:39;11.70;99.90
7046;DHT22;3564;53.326;10.356;2023-02-13T17:45:05;11.70;99.90
7046;DHT22;3564;53.326;10.356;2023-02-13T17:47:30;11.70;99.90
7046;DHT22;3564;53.326;10.356;2023-02-13T17:49:56;11.70;99.90
7046;DHT22;3564;53.326;10.356;2023-02-13T17:52:25;11.70;99.90
7046;DHT22;3564;53.326;10.356;2023-02-13T17:54:51;11.70;99.90
7046;DHT22;3564;53.326;10.356;2023-02-13T17:57:17;11.70;99.90
7046;DHT22;3564;53.326;10.356;2023-02-13T17:59:44;11.70;99.90
7046;DHT22;3564;53.326;10.356;2023-02-13T18:02:15;11.70;99.90
7046;DHT22;3564;53.326;10.356;2023-02-13T18:04:42;11.70;99.90
7046;DHT22;3564;53.326;10.356;2023-02-13T18:07:09;11.70;99.90
7046;DHT22;3564;53.326;10.356;2023-02-13T18:09:35;11.60;99.70
7046;DHT22;3564;53.326;10.356;2023-02-13T18:12:01;11.60;99.60
7046;DHT22;3564;53.326;10.356;2023-02-13T18:14:29;11.60;99.50
7046;DHT22;3564;53.326;10.356;2023-02-13T18:16:55;11.60;99.50
7046;DHT22;3564;53.326;10.356;2023-02-13T18:19:21;11.60;99.50
7046;DHT22;3564;53.326;10.356;2023-02-13T18:21:47;11.60;99.50
7046;DHT22;3564;53.326;10.356;2023-02-13T18:24:12;11.60;99.50
7046;DHT22;3564;53.326;10.356;2023-02-13T18:26:38;11.60;99.50
7046;DHT22;3564;53.326;10.356;2023-02-13T18:29:03;11.60;99.50
7046;DHT22;3564;53.326;10.356;2023-02-13T18:31:29;11.60;99.60
7046;DHT22;3564;53.326;10.356;2023-02-13T18:33:55;11.60;99.50
7046;DHT22;3564;53.326;10.356;2023-02-13T18:36:20;11.60;99.50
7046;DHT22;3564;53.326;10.356;2023-02-13T18:38:46;11.60;99.40
7046;DHT22;3564;53.326;10.356;2023-02-13T18:41:12;11.60;99.40
7046;DHT22;3564;53.326;10.356;2023-02-13T18:43:38;11.60;99.20
7046;DHT22;3564;53.326;10.356;2023-02-13T18:46:04;11.60;99.10
7046;DHT22;3564;53.326;10.356;2023-02-13T18:48:30;11.60;99.20
7046;DHT22;3564;53.326;10.356;2023-02-13T18:50:58;11.60;99.20
7046;DHT22;3564;53.326;10.356;2023-02-13T18:53:25;11.50;99.50
7046;DHT22;3564;53.326;10.356;2023-02-13T18:55:58;11.50;99.30
7046;DHT22;3564;53.326;10.356;2023-02-13T18:58:25;11.60;99.40
7046;DHT22;3564;53.326;10.356;2023-02-13T19:00:51;11.50;99.40
7046;DHT22;3564;53.326;10.356;2023-02-13T19:03:16;11.50;99.50
7046;DHT22;3564;53.326;10.356;2023-02-13T19:05:42;11.50;99.40
7046;DHT22;3564;53.326;10.356;2023-02-13T19:08:07;11.50;99.40